Portada
METAR-TAF:

METAR-TAF

Aeropuertos :

Santa María de Leuca

Castrignano del Capo, Italia

latitud: 39-49N, longitud: 018-21E, altitud: 104 m

Observación

El informe se hizo hace 1 hora y 19 minutos, a las 07:55 UTC
Viento 8 kt del norte-noreste
Temperatura 12°C
Humedad 71%
Presión 1014 hPa
Visibilidad 10 km o más
Escasas nubes a una altura de 2500 ft

METAR: LIBY 160755Z 03008KT 9999 FEW025 12/07 Q1014 RMK OVC OVC070 QUK 1 QUL 0 VIS MAR 12 KM VIS MIN 9999

Hora: 11:14 (09:14 UTC)


TAF: falta

Observaciones y pronósticos meteorológicos de más de 4000 aeropuertos (mensajes METAR y TAF).

Los puntos amarillos y rojos representan las estaciones disponibles.

Ponga el ratón en el punto deseado para ver el nombre de la estación.

Haga clic para ver las observaciones y los pronósticos meteorológicos.

Para cambiar el mapa : haga clic en los botones verdes con una cruz de color negro para hacer un zoom, en el botón verde con un guión para alejar o en las flechas verdes para mapas adyacentes.


METAR-TAF: